Tiempo atmosférico en la estación meteorológica de El Maíllo, Salamanca (1027 m.)

Fecha
DESCASC
Temp. máxima en grados centígrados (hora)
DESCASC
Temp. mínima en grados centígrados (hora)
DESCASC
Temp. media en grados centígrados
DESCASC
Racha de viento máxima en m/sg (hora)
DESCASC
Velocidad máxima media en intervalos de 10 minutos(hora)
DESCASC
Precipitaciones diarias en mm
DESCASC
Precipitaciones de 00:00 a 06:00 en mm
DESCASC
Precipitaciones de 06:00 a 12:00 en mm
DESCASC
Precipitaciones de 12:00 a 18:00 en mm
DESCASC
Precipitaciones de 18:00 a 24:00 en mm
DESCASC
10-12-2017 9.7 (14:40) 6.8 (06:40) 8.3 25.28 (23:59) 16.67 (23:59) 9.6 0 0 0 9.6
09-12-2017 9.1 (00:00) 7.8 (08:20) 8.5 9.44 (22:40) 6.67 (23:50) 0.2 0 0.2 0 0
08-12-2017 9.9 (14:40) 7.5 (00:00) 8.7 9.72 (20:30) 5.83 (20:10) 3 0 2.2 0.8 0
07-12-2017 12.1 (13:50) -0.6 (-00:0) 5.8 5.56 (15:10) 5 (06:00) 0 0 0 0 0
06-12-2017 10.6 (13:10) -1 (-00:0) 4.8 6.11 (08:10) 5.28 (08:10) 0 0 0 0 0
05-12-2017 9.5 (15:10) -1.1 (-00:0) 4.2 6.67 (04:40) 5.83 (04:30) 0 0 0 0 0
04-12-2017 6.9 (15:30) -1.2 (-00:0) 2.9 10 (06:50) 6.11 (06:50) 0 0 0 0 0
03-12-2017 3.9 (13:30) -1.3 (-00:0) 1.3 13.89 (12:50) 9.72 (12:50) 0 0 0 0 0
02-12-2017 4.5 (16:10) -4.8 (-00:0) -0.2 6.39 (23:40) 4.72 (23:40) 0 0 0 0 0
01-12-2017 5.5 (15:50) -3.6 (-00:0) 1 11.11 (15:40) 7.5 (15:50) 0.4 0 0 0.4 0
30-11-2017 4.4 (15:30) -2.4 (-00:0) 1 10.56 (11:50) 7.22 (11:30) 0 0 0 0 0
29-11-2017 8 (00:00) -0.9 (-00:0) 3.6 9.17 (14:10) 5.83 (15:10) 0.6 0.6 0 0 0
28-11-2017 10.2 (15:00) 5.2 (00:00) 7.7 8.06 (05:50) 5.56 (15:10) 4.8 0 1.6 2.2 1
27-11-2017 12.3 (15:30) 0.1 (00:00) 6.2 6.11 (00:50) 4.72 (00:50) 0 0 0 0 0
26-11-2017 10.8 (14:50) -0.1 (00:00) 5.4 8.06 (12:00) 5.83 (12:00) 0 0 0 0 0
25-11-2017 11.1 (01:10) 3.5 (00:00) 7.3 12.78 (01:10) 8.33 (01:10) 0 0 0 0 0
24-11-2017 13.4 (11:10) 8.6 (00:00) 11 21.67 (01:50) 13.89 (01:20) 1 0 0.2 0.8 0
23-11-2017 15.3 (14:50) 8.3 (00:00) 11.8 25 (23:59) 15.56 (20:30) 3.4 0 0.4 0 3
22-11-2017 14.7 (12:20) 10.5 (00:00) 12.6 17.5 (21:50) 11.11 (11:00) 0 0 0 0 0
21-11-2017 17.6 (15:10) 3.1 (00:00) 10.4 9.17 (23:59) 6.39 (18:00) 0 0 0 0 0
20-11-2017 17.5 (16:20) 4.2 (00:00) 10.8 6.39 (01:40) 5.83 (01:40) 0 0 0 0 0
19-11-2017 15.9 (12:50) 4.1 (00:00) 10 6.94 (08:30) 6.11 (08:30) 0 0 0 0 0
18-11-2017 15.7 (14:50) 5.4 (00:00) 10.5 6.94 (15:50) 4.72 (15:40) 0 0 0 0 0
17-11-2017 18.3 (15:50) 4.9 (00:00) 11.6 6.11 (06:10) 5 (05:50) 0 0 0 0 0
16-11-2017 17 (15:40) 2.7 (00:00) 9.9 5 (20:00) 4.44 (20:40) 0 0 0 0 0
15-11-2017 14.7 (15:40) 0.9 (00:00) 7.8 5 (00:10) 3.89 (19:30) 0 0 0 0 0

Gráficas

Temp. máximas Temp. mínimas Temp. medias Precipitaciones Rachas de viento máximas Velocidades máximas media en intervalos de 10 minutos

Datos horarios

Fecha y hora oficial Temperatura (ºC) Velocidad del viento (km/h) Dirección del viento Racha (km/h) Dirección de racha Precipitación (mm) Presión (hPa) Tendencia (hPa) Humedad (%)
2017-12-14 23:00:00 7.6 26 Oeste 40 Oeste 0 -- -- 98
2017-12-14 22:00:00 8.3 23 Oeste 34 Oeste 0.8 -- -- 98
2017-12-14 21:00:00 8.4 19 Sudoeste 38 Sudoeste 0 -- -- 97
2017-12-14 20:00:00 8.6 28 Sudoeste 38 Sudoeste 0 -- -- 96
2017-12-14 19:00:00 8.6 19 Sudoeste 29 Sudoeste 0 -- -- 95
2017-12-14 18:00:00 8.8 20 Sudoeste 33 Oeste 0 -- -- 96
2017-12-14 17:00:00 9.3 20 Oeste 34 Oeste 0 -- -- 94
2017-12-14 16:00:00 9.6 24 Oeste 38 Sudoeste 0 -- -- 94
2017-12-14 15:00:00 9.7 19 Sudoeste 33 Oeste 0 -- -- 96
2017-12-14 14:00:00 9.6 22 Sudoeste 39 Sudoeste 0 -- -- 97
2017-12-14 13:00:00 9.3 24 Sudoeste 37 Sudoeste 0 -- -- 98
2017-12-14 12:00:00 9.1 21 Sudoeste 34 Sudoeste 0 -- -- 98
2017-12-14 11:00:00 8.9 21 Sudoeste 37 Sudoeste 0 -- -- 98
2017-12-14 10:00:00 9 23 Sudoeste 36 Sudoeste 0 -- -- 97
2017-12-14 09:00:00 8.9 23 Sudoeste 39 Sudoeste 0 -- -- 96
2017-12-14 08:00:00 8.7 23 Sudoeste 35 Sudoeste 0 -- -- 96
2017-12-14 07:00:00 8.8 20 Sudoeste 35 Sudoeste 0 -- -- 95
2017-12-14 06:00:00 8.2 20 Sudoeste 37 Sudoeste 0 -- -- 98
2017-12-14 05:00:00 8.3 20 Sudoeste 33 Sudoeste 0 -- -- 98
2017-12-14 04:00:00 8.3 23 Sudoeste 39 Sudoeste 0 -- -- 97
2017-12-14 03:00:00 8.3 22 Sudoeste 36 Sudoeste 0 -- -- 98
2017-12-14 02:00:00 8 20 Sudoeste 31 Sudoeste 0 -- -- 97
2017-12-14 01:00:00 8 21 Sudoeste 30 Sudoeste 0 -- -- 95
2017-12-14 00:00:00 7.7 21 Sudoeste 32 Sudoeste 0 -- -- 93
2017-12-13 23:00:00 8.2 21 Sudoeste 31 Sudoeste 0 -- -- 90
2017-12-13 22:00:00 8 17 Sudoeste 28 Sudoeste 0 -- -- 88
2017-12-13 21:00:00 7.5 17 Sudoeste 27 Sudoeste 0 -- -- 87
2017-12-13 20:00:00 7.6 15 Sudoeste 28 Sudoeste 0 -- -- 81
2017-12-13 19:00:00 6.2 12 Sudoeste 22 Sur 0 -- -- 88
2017-12-13 18:00:00 6.7 13 Sudoeste 26 Sudoeste 0 -- -- 90
2017-12-13 17:00:00 7.5 18 Sudoeste 33 Sudoeste 0 -- -- 88
2017-12-13 16:00:00 8 18 Sudoeste 35 Sudoeste 0 -- -- 85
2017-12-13 15:00:00 8.6 18 Sudoeste 32 Sudoeste 0 -- -- 83
2017-12-13 14:00:00 9.6 17 Sudoeste 27 Sudoeste 0 -- -- 83
2017-12-13 13:00:00 9.1 20 Sudoeste 33 Sudoeste 0 -- -- 83
2017-12-13 12:00:00 9.4 17 Sudoeste 25 Sudoeste 0 -- -- 83
2017-12-13 11:00:00 8.4 13 Sudoeste 21 Sudoeste 0 -- -- 85
2017-12-13 10:00:00 4.5 9 Sudoeste 17 Sudoeste 0 -- -- 98
2017-12-13 09:00:00 2.8 9 Sudoeste 18 Sudoeste 0 -- -- 97
2017-12-13 08:00:00 1 2 Sur 14 Sur 0 -- -- 96
2017-12-13 07:00:00 1.1 11 Sur 15 Sur 0 -- -- 95
2017-12-13 06:00:00 1.2 10 Sur 12 Sur 0 -- -- 94
2017-12-13 05:00:00 0.4 6 Sur 13 Sur 0 -- -- 95
2017-12-13 04:00:00 -0.2 12 Sur 18 Sur 0 -- -- 93
2017-12-13 03:00:00 -0.1 14 Sur 17 Sur 0 -- -- 95
2017-12-13 02:00:00 -0.3 9 Sur 17 Sur 0 -- -- 96
2017-12-13 01:00:00 -0.4 14 Sur 18 Sur 0 -- -- 96
2017-12-13 00:00:00 -0.3 14 Sur 18 Sur 0 -- -- 96
2017-12-12 23:00:00 -0.3 14 Sur 17 Sur 0 -- -- 96
2017-12-12 22:00:00 -0.1 13 Sur 19 Sur 0 -- -- 96
2017-12-12 21:00:00 -0.1 14 Sur 17 Sur 0 -- -- 96
2017-12-12 20:00:00 0.1 9 Sur 12 Sur 0 -- -- 94
2017-12-12 19:00:00 1.5 9 Sur 12 Sur 0 -- -- 91
2017-12-12 18:00:00 2.8 5 Oeste 11 Oeste 0 -- -- 85
2017-12-12 17:00:00 3.6 4 Noroeste 14 Oeste 0 -- -- 82
2017-12-12 16:00:00 3.7 3 Norte 17 Oeste 0 -- -- 82
2017-12-12 15:00:00 3.6 9 Noroeste 17 Oeste 0 -- -- 82
2017-12-12 14:00:00 3.2 4 Oeste 13 Noroeste 0 -- -- 86
2017-12-12 13:00:00 2.3 7 Oeste 14 Oeste 0 -- -- 87
2017-12-12 12:00:00 2.3 4 Oeste 10 Oeste 0 -- -- 91
2017-12-12 11:00:00 0.6 2 Sudoeste 9 Oeste 0 -- -- 98
2017-12-12 10:00:00 0 5 Oeste 13 Noroeste 0 -- -- 98
2017-12-12 09:00:00 -0.3 4 Sur 12 Sur 0 -- -- 99
2017-12-12 08:00:00 -0.8 5 Sur 13 Sur 0 -- -- 98
2017-12-12 07:00:00 -1.1 8 Sur 14 Sur 0 -- -- 98
2017-12-12 06:00:00 -2.2 5 Sur 10 Sur 0 -- -- 96
2017-12-12 05:00:00 -2.1 7 Sur 12 Sur 0 -- -- 95
2017-12-12 04:00:00 -1.9 4 Sur 14 Sur 0 -- -- 96
2017-12-12 03:00:00 -2.2 4 Sur 11 Sur 0 -- -- 95
2017-12-12 02:00:00 -2 3 Sur 11 Sur 0 -- -- 94
2017-12-12 01:00:00 -1.9 0 Calma 6 Oeste 0 -- -- 93
2017-12-12 00:00:00 -1.5 3 Sur 6 Sur 0 -- -- 93
2017-12-11 23:00:00 -1.1 0 Calma 8 Noroeste 0 -- -- 94
2017-12-11 22:00:00 -0.7 3 Noroeste 22 Noroeste 0 -- -- 95
2017-12-11 21:00:00 -0.3 7 Noroeste 21 Noroeste 0 -- -- 96
2017-12-11 20:00:00 1.4 15 Oeste 30 Oeste 0 -- -- 97
2017-12-11 19:00:00 1.8 10 Noroeste 36 Noroeste 0 -- -- 98
2017-12-11 18:00:00 1.9 10 Noroeste 28 Noroeste 0.2 -- -- 98
2017-12-11 17:00:00 1.9 14 Noroeste 25 Noroeste 1 -- -- 99
2017-12-11 16:00:00 0.7 7 Sudoeste 13 Oeste 1.4 -- -- 97
2017-12-11 15:00:00 0.5 7 Sudoeste 23 Sudoeste 1.8 -- -- 96
2017-12-11 14:00:00 2.9 15 Sudoeste 33 Sudoeste 0.6 -- -- 93
2017-12-11 13:00:00 4 23 Sudoeste 43 Sudoeste 0 -- -- 85
2017-12-11 12:00:00 3.5 18 Oeste 36 Sudoeste 0 -- -- 89
2017-12-11 11:00:00 1.7 22 Sudoeste 36 Oeste 0 -- -- 96
2017-12-11 10:00:00 1.2 21 Oeste 46 Oeste 0 -- -- 97
2017-12-11 09:00:00 1.4 24 Oeste 38 Oeste 0 -- -- 98
2017-12-11 08:00:00 1.8 22 Oeste 47 Oeste 0.2 -- -- 97
2017-12-11 07:00:00 2.4 31 Oeste 62 Sudoeste 0 -- -- 96
2017-12-11 06:00:00 2.8 31 Sudoeste 44 Sudoeste 0 -- -- 96
2017-12-11 05:00:00 2.9 27 Sudoeste 45 Oeste 0.6 -- -- 97
2017-12-11 04:00:00 2.9 24 Sudoeste 52 Sudoeste 0.6 -- -- 96
2017-12-11 03:00:00 3.4 40 Oeste 72 Oeste 4 -- -- 97
2017-12-11 02:00:00 4.4 40 Oeste 71 Sudoeste 4.8 -- -- 97
2017-12-11 01:00:00 4.4 52 Oeste 93 Sudoeste 6 -- -- 90
2017-12-11 00:00:00 9.2 60 Sudoeste 91 Sudoeste 2.6 -- -- 89
2017-12-10 23:00:00 8.6 44 Sudoeste 77 Sur 3.8 -- -- 93
2017-12-10 22:00:00 8.7 47 Sudoeste 79 Sudoeste 2 -- -- 92
2017-12-10 21:00:00 8.7 40 Sudoeste 74 Sudoeste 1 -- -- 93
2017-12-10 20:00:00 8.7 41 Sudoeste 72 Sudoeste 0.2 -- -- 90
2017-12-10 19:00:00 8.4 44 Sudoeste 76 Sudoeste 0 -- -- 90
2017-12-10 18:00:00 8.8 45 Sudoeste 78 Sudoeste 0 -- -- 83
2017-12-10 17:00:00 8.7 42 Sudoeste 64 Sudoeste 0 -- -- 91
2017-12-10 16:00:00 9.1 40 Sudoeste 70 Sudoeste 0 -- -- 91
2017-12-10 15:00:00 9.6 31 Sudoeste 59 Sudoeste 0 -- -- 90
2017-12-10 14:00:00 9.1 36 Sudoeste 58 Sudoeste 0 -- -- 92
2017-12-10 13:00:00 9.1 42 Sudoeste 58 Sudoeste 0 -- -- 90
2017-12-10 12:00:00 9.1 32 Sudoeste 54 Sur 0 -- -- 88
2017-12-10 11:00:00 8.9 26 Sudoeste 43 Sur 0 -- -- 83
2017-12-10 10:00:00 8.4 23 Sudoeste 42 Sudoeste 0 -- -- 85
2017-12-10 09:00:00 7.6 28 Sudoeste 42 Sudoeste 0 -- -- 86
2017-12-10 08:00:00 7.4 24 Sudoeste 38 Sudoeste 0 -- -- 85
2017-12-10 07:00:00 7 23 Sudoeste 39 Sudoeste 0 -- -- 86
2017-12-10 06:00:00 7.2 29 Sudoeste 42 Sudoeste 0 -- -- 86
2017-12-10 05:00:00 7.4 23 Sudoeste 38 Sudoeste 0 -- -- 89
2017-12-10 04:00:00 7.8 24 Sudoeste 37 Sudoeste 0 -- -- 90
2017-12-10 03:00:00 7.3 21 Sudoeste 36 Sudoeste 0 -- -- 92
2017-12-10 02:00:00 7.9 21 Sudoeste 41 Oeste 0 -- -- 93
2017-12-10 01:00:00 8.1 20 Sudoeste 36 Sudoeste 0 -- -- 94
2017-12-10 00:00:00 8.4 24 Oeste 33 Sudoeste 0 -- -- 96
2017-12-09 23:00:00 8.5 18 Oeste 34 Sudoeste 0 -- -- 96
2017-12-09 22:00:00 8.5 19 Oeste 30 Sudoeste 0 -- -- 96
2017-12-09 21:00:00 8.6 21 Oeste 33 Sudoeste 0 -- -- 96
2017-12-09 20:00:00 8.6 21 Sudoeste 32 Sudoeste 0 -- -- 97
2017-12-09 19:00:00 8.7 17 Oeste 30 Oeste 0 -- -- 97
2017-12-09 18:00:00 9 15 Oeste 23 Oeste 0 -- -- 96
2017-12-09 17:00:00 9 13 Sudoeste 22 Sudoeste 0 -- -- 98
2017-12-09 16:00:00 9.1 12 Sudoeste 27 Oeste 0 -- -- 100
2017-12-09 15:00:00 8.9 17 Sudoeste 24 Oeste 0 -- -- 100
2017-12-09 14:00:00 8.7 16 Oeste 27 Oeste 0 -- -- 100
2017-12-09 13:00:00 8.5 15 Oeste 26 Oeste 0 -- -- 100
2017-12-09 12:00:00 8.4 13 Oeste 19 Oeste 0 -- -- 100
2017-12-09 11:00:00 8 13 Oeste 20 Oeste 0 -- -- 100
2017-12-09 10:00:00 7.9 12 Sudoeste 19 Oeste 0.2 -- -- 100
2017-12-09 09:00:00 7.8 10 Sudoeste 22 Oeste 0 -- -- 100
2017-12-09 08:00:00 7.9 13 Oeste 22 Oeste 0 -- -- 100
2017-12-09 07:00:00 8 13 Oeste 19 Oeste 0 -- -- 100
2017-12-09 06:00:00 8.2 13 Oeste 21 Oeste 0 -- -- 100
2017-12-09 05:00:00 8.4 12 Oeste 23 Oeste 0 -- -- 100
2017-12-09 04:00:00 8.5 17 Noroeste 26 Oeste 0 -- -- 100
2017-12-09 03:00:00 8.8 13 Oeste 26 Oeste 0 -- -- 100
2017-12-09 02:00:00 9 13 Oeste 26 Oeste 0 -- -- 100
2017-12-09 01:00:00 9.1 13 Oeste 23 Oeste 0 -- -- 100
2017-12-09 00:00:00 9.1 12 Oeste 25 Oeste 0 -- -- 100
2017-12-08 23:00:00 9.2 16 Oeste 33 Noroeste 0 -- -- 99
2017-12-08 22:00:00 9.4 19 Oeste 31 Oeste 0 -- -- 99
2017-12-08 21:00:00 9.6 17 Oeste 35 Oeste 0 -- -- 99
2017-12-08 20:00:00 9.7 18 Oeste 32 Oeste 0 -- -- 99
2017-12-08 19:00:00 9.8 17 Oeste 25 Oeste 0 -- -- 99
2017-12-08 18:00:00 9.7 15 Oeste 24 Oeste 0.2 -- -- 99
2017-12-08 17:00:00 9.7 15 Oeste 27 Oeste 0 -- -- 99
2017-12-08 16:00:00 9.5 13 Oeste 28 Sudoeste 0.2 -- -- 99
2017-12-08 15:00:00 9.9 19 Oeste 29 Oeste 0.2 -- -- 99
2017-12-08 14:00:00 9.5 19 Oeste 31 Oeste 0 -- -- 99
2017-12-08 13:00:00 9.3 15 Oeste 23 Oeste 0.2 -- -- 98
2017-12-08 12:00:00 8.9 12 Oeste 19 Sudoeste 0.4 -- -- 98
2017-12-08 11:00:00 8.4 11 Sudoeste 18 Oeste 0.2 -- -- 98
2017-12-08 10:00:00 8.1 11 Sudoeste 19 Oeste 0.2 -- -- 97
2017-12-08 09:00:00 8.1 10 Sudoeste 21 Sudoeste 0.6 -- -- 97
2017-12-08 08:00:00 7.8 9 Sudoeste 15 Sudoeste 0.8 -- -- 96
2017-12-08 07:00:00 7.7 8 Sudoeste 14 Sudoeste 0 -- -- 93
2017-12-08 06:00:00 7.7 8 Sudoeste 16 Oeste 0 -- -- 91
2017-12-08 05:00:00 8 10 Sudoeste 16 Sudoeste 0 -- -- 87
2017-12-08 04:00:00 7.8 10 Sudoeste 16 Sudoeste 0 -- -- 67
2017-12-08 03:00:00 8.3 8 Sudoeste 19 Oeste 0 -- -- 69
2017-12-08 02:00:00 8.3 6 Sudoeste 12 Sudoeste 0 -- -- 71
2017-12-08 01:00:00 7.9 5 Sudoeste 14 Sudoeste 0 -- -- 63
2017-12-08 00:00:00 7.5 7 Sudoeste 12 Sudoeste 0 -- -- 49
2017-12-07 23:00:00 7.2 8 Sur 14 Sudoeste 0 -- -- 56
2017-12-07 22:00:00 6.2 4 Sudoeste 10 Sur 0 -- -- 49
2017-12-07 21:00:00 5.6 4 Sudoeste 12 Sur 0 -- -- 51
2017-12-07 20:00:00 5.3 6 Sudoeste 17 Oeste 0 -- -- 48
2017-12-07 19:00:00 7.3 10 Sudoeste 13 Sudoeste 0 -- -- 38
2017-12-07 18:00:00 8.5 9 Sudoeste 15 Sudoeste 0 -- -- 34
2017-12-07 17:00:00 9.3 7 Sudoeste 20 Oeste 0 -- -- 38
2017-12-07 16:00:00 10.6 12 Oeste 20 Noroeste 0 -- -- 32
2017-12-07 15:00:00 11.9 13 Oeste 19 Noroeste 0 -- -- 33
2017-12-07 14:00:00 12 8 Noroeste 15 Oeste 0 -- -- 33
2017-12-07 13:00:00 11.2 6 Oeste 15 Oeste 0 -- -- 33
2017-12-07 12:00:00 10.2 8 Oeste 15 Noroeste 0 -- -- 33
2017-12-07 11:00:00 9.1 4 Sur 9 Sur 0 -- -- 35
2017-12-07 10:00:00 4.8 8 Sur 15 Sur 0 -- -- 44
2017-12-07 09:00:00 2.1 9 Sudeste 14 Sur 0 -- -- 50
2017-12-07 08:00:00 0.9 14 Sur 18 Sur 0 -- -- 52
2017-12-07 07:00:00 -0.3 14 Sur 20 Sur 0 -- -- 54
2017-12-07 06:00:00 0.2 18 Sur 20 Sur 0 -- -- 52
2017-12-07 05:00:00 0.7 10 Sur 13 Sudeste 0 -- -- 51
2017-12-07 04:00:00 2.3 8 Sur 13 Sur 0 -- -- 48
2017-12-07 03:00:00 3 7 Sur 14 Sur 0 -- -- 46
2017-12-07 02:00:00 2.5 9 Sur 16 Sur 0 -- -- 44
2017-12-07 01:00:00 1.8 13 Sur 15 Sur 0 -- -- 49
2017-12-07 00:00:00 1.5 13 Sur 20 Sur 0 -- -- 49
2017-12-06 23:00:00 0.8 17 Sur 20 Sur 0 -- -- 56
2017-12-06 22:00:00 0 14 Sur 20 Sur 0 -- -- 72
2017-12-06 21:00:00 0.5 18 Sur 20 Sur 0 -- -- 66
2017-12-06 20:00:00 1 17 Sur 21 Sur 0 -- -- 68
2017-12-06 19:00:00 0.9 13 Sur 16 Sur 0 -- -- 72
2017-12-06 18:00:00 3.4 10 Sur 13 Sur 0 -- -- 69
2017-12-06 17:00:00 9.5 3 Noroeste 8 Noroeste 0 -- -- 46
2017-12-06 16:00:00 10 4 Norte 10 Norte 0 -- -- 45
2017-12-06 15:00:00 10.4 3 Norte 12 Noroeste 0 -- -- 43
2017-12-06 14:00:00 9.9 7 Noroeste 13 Noroeste 0 -- -- 44
2017-12-06 13:00:00 10.5 5 Norte 8 Norte 0 -- -- 36
2017-12-06 12:00:00 9.1 4 Noroeste 6 Noroeste 0 -- -- 37
2017-12-06 11:00:00 7.6 0 Calma 12 Sur 0 -- -- 39
2017-12-06 10:00:00 2.7 11 Sur 17 Sur 0 -- -- 50
2017-12-06 09:00:00 -1 15 Sur 22 Sur 0 -- -- 61
2017-12-06 08:00:00 -0.3 19 Sur 21 Sur 0 -- -- 57
2017-12-06 07:00:00 -0.3 11 Sur 21 Sur 0 -- -- 59
2017-12-06 06:00:00 -0.4 15 Sur 21 Sur 0 -- -- 61
2017-12-06 05:00:00 -0.6 15 Sur 18 Sur 0 -- -- 61
2017-12-06 04:00:00 -0.5 14 Sur 19 Sur 0 -- -- 61
2017-12-06 03:00:00 0 16 Sur 21 Sur 0 -- -- 58
2017-12-06 02:00:00 0.3 17 Sur 21 Sur 0 -- -- 55
2017-12-06 01:00:00 0.2 13 Sur 18 Sur 0 -- -- 56
2017-12-06 00:00:00 0.5 14 Sur 22 Sur 0 -- -- 55
2017-12-05 23:00:00 0.3 16 Sur 19 Sur 0 -- -- 56
2017-12-05 22:00:00 0 13 Sur 18 Sur 0 -- -- 63
2017-12-05 21:00:00 0.5 17 Sur 20 Sur 0 -- -- 62
2017-12-05 20:00:00 0.5 13 Sur 15 Sudeste 0 -- -- 73
2017-12-05 19:00:00 1.2 7 Sudeste 18 Sur 0 -- -- 77
2017-12-05 18:00:00 3.1 10 Sur 14 Sur 0 -- -- 75
2017-12-05 17:00:00 8.6 5 Noroeste 11 Norte 0 -- -- 59
2017-12-05 16:00:00 9.2 5 Noroeste 12 Noroeste 0 -- -- 53
2017-12-05 15:00:00 9.4 5 Noroeste 9 Noroeste 0 -- -- 54
2017-12-05 14:00:00 9.3 6 Norte 12 Norte 0 -- -- 44
2017-12-05 13:00:00 8.6 3 Norte 10 Noroeste 0 -- -- 42
2017-12-05 12:00:00 9 4 Norte 8 Norte 0 -- -- 43
2017-12-05 11:00:00 7.7 0 Calma 8 Sudeste 0 -- -- 54
2017-12-05 10:00:00 3.2 9 Sudeste 13 Sur 0 -- -- 60
2017-12-05 09:00:00 -0.4 9 Sur 20 Sur 0 -- -- 71
2017-12-05 08:00:00 0 14 Sur 23 Sur 0 -- -- 69
2017-12-05 07:00:00 -0.1 12 Sur 24 Sur 0 -- -- 72
2017-12-05 06:00:00 0.3 20 Sur 24 Sur 0 -- -- 71
2017-12-05 05:00:00 0 21 Sur 24 Sur 0 -- -- 73
2017-12-05 04:00:00 0 20 Sur 22 Sur 0 -- -- 74
2017-12-05 03:00:00 -0.1 13 Sur 22 Sur 0 -- -- 74
2017-12-05 02:00:00 -1 11 Sur 18 Sudeste 0 -- -- 77
2017-12-05 01:00:00 -0.7 9 Sudeste 14 Sudeste 0 -- -- 78
2017-12-05 00:00:00 -0.4 6 Sudeste 12 Sudeste 0 -- -- 82
2017-12-04 23:00:00 -0.2 6 Sudeste 15 Sur 0 -- -- 83
2017-12-04 22:00:00 -1.1 12 Sur 18 Sur 0 -- -- 84
2017-12-04 21:00:00 -0.7 9 Sudeste 14 Sur 0 -- -- 83
2017-12-04 20:00:00 0 12 Este 13 Este 0 -- -- 90
2017-12-04 19:00:00 1.1 12 Este 15 Este 0 -- -- 85
2017-12-04 18:00:00 2.9 10 Este 21 Este 0 -- -- 77
2017-12-04 17:00:00 5.7 14 Nordeste 23 Nordeste 0 -- -- 68
2017-12-04 16:00:00 6.7 17 Nordeste 26 Nordeste 0 -- -- 65
2017-12-04 15:00:00 6.7 18 Nordeste 26 Nordeste 0 -- -- 62
2017-12-04 14:00:00 6.5 16 Nordeste 25 Nordeste 0 -- -- 63
2017-12-04 13:00:00 5.4 17 Nordeste 27 Nordeste 0 -- -- 68
2017-12-04 12:00:00 4.7 18 Nordeste 29 Este 0 -- -- 71
2017-12-04 11:00:00 3.8 18 Nordeste 26 Nordeste 0 -- -- 71
2017-12-04 10:00:00 3.7 14 Este 24 Este 0 -- -- 69
2017-12-04 09:00:00 1.4 14 Este 23 Este 0 -- -- 78
2017-12-04 08:00:00 1.3 12 Este 26 Este 0 -- -- 76
2017-12-04 07:00:00 2.1 21 Este 36 Este 0 -- -- 74
2017-12-04 06:00:00 2 17 Este 28 Este 0 -- -- 76
2017-12-04 05:00:00 2.1 15 Este 23 Este 0 -- -- 73
2017-12-04 04:00:00 2.4 17 Este 29 Este 0 -- -- 70
2017-12-04 03:00:00 0.9 11 Este 26 Este 0 -- -- 73
2017-12-04 02:00:00 1.9 17 Este 26 Este 0 -- -- 69
2017-12-04 01:00:00 1.9 15 Este 28 Este 0 -- -- 67
2017-12-04 00:00:00 2 20 Este 30 Este 0 -- -- 67
2017-12-03 23:00:00 1 23 Este 34 Este 0 -- -- 72
2017-12-03 22:00:00 0.9 17 Este 38 Este 0 -- -- 72
2017-12-03 21:00:00 1.1 26 Este 41 Este 0 -- -- 70
2017-12-03 20:00:00 1.4 27 Este 40 Este 0 -- -- 70
2017-12-03 19:00:00 1.4 25 Nordeste 37 Nordeste 0 -- -- 70
2017-12-03 18:00:00 1.6 21 Nordeste 37 Este 0 -- -- 70
2017-12-03 17:00:00 3.2 18 Este 36 Nordeste 0 -- -- 65
2017-12-03 16:00:00 3.6 25 Este 39 Nordeste 0 -- -- 65
2017-12-03 15:00:00 3.7 26 Nordeste 41 Este 0 -- -- 64
2017-12-03 14:00:00 3.6 31 Este 45 Este 0 -- -- 64
2017-12-03 13:00:00 3.6 27 Este 50 Este 0 -- -- 64
2017-12-03 12:00:00 3 27 Este 44 Este 0 -- -- 63
2017-12-03 11:00:00 1.9 31 Este 45 Este 0 -- -- 66
2017-12-03 10:00:00 0.7 26 Este 38 Este 0 -- -- 72
2017-12-03 09:00:00 -0.9 19 Este 30 Este 0 -- -- 75
2017-12-03 08:00:00 -1.1 19 Este 31 Este 0 -- -- 77
2017-12-03 07:00:00 -1.3 17 Este 25 Este 0 -- -- 79
2017-12-03 06:00:00 -0.9 21 Este 32 Este 0 -- -- 79
2017-12-03 05:00:00 -0.8 21 Este 28 Este 0 -- -- 82
2017-12-03 04:00:00 -1 15 Este 27 Este 0 -- -- 85
2017-12-03 03:00:00 -0.8 17 Este 24 Este 0 -- -- 84
2017-12-03 02:00:00 -0.7 13 Este 20 Este 0 -- -- 83
2017-12-03 01:00:00 -0.6 13 Este 22 Este 0 -- -- 81
2017-12-03 00:00:00 -0.1 14 Este 23 Este 0 -- -- 78
2017-12-02 23:00:00 -0.1 13 Este 21 Nordeste 0 -- -- 76
2017-12-02 22:00:00 0.3 14 Este 22 Este 0 -- -- 73
2017-12-02 21:00:00 -0.2 7 Este 17 Este 0 -- -- 74
2017-12-02 20:00:00 0.8 8 Este 16 Este 0 -- -- 71
2017-12-02 19:00:00 0.3 10 Nordeste 12 Nordeste 0 -- -- 77
2017-12-02 18:00:00 1.9 3 Sudeste 10 Norte 0 -- -- 69
2017-12-02 17:00:00 3.9 9 Norte 19 Nordeste 0 -- -- 63
2017-12-02 16:00:00 4.4 11 Nordeste 19 Nordeste 0 -- -- 59
2017-12-02 15:00:00 4.3 10 Norte 19 Norte 0 -- -- 59
2017-12-02 14:00:00 3.8 10 Norte 21 Norte 0 -- -- 59
2017-12-02 13:00:00 3.1 8 Norte 16 Nordeste 0 -- -- 62
2017-12-02 12:00:00 2.6 7 Norte 13 Norte 0 -- -- 64
2017-12-02 11:00:00 1.6 2 Norte 8 Nordeste 0 -- -- 66
2017-12-02 10:00:00 -1.4 4 Sur 11 Sur 0 -- -- 80
2017-12-02 09:00:00 -4.5 9 Sur 13 Sur 0 -- -- 86
2017-12-02 08:00:00 -4.8 10 Sur 13 Sur 0 -- -- 85
2017-12-02 07:00:00 -4.6 7 Sur 10 Sur 0 -- -- 85
2017-12-02 06:00:00 -4.3 3 Sudeste 8 Este 0 -- -- 82
2017-12-02 05:00:00 -3.3 6 Este 8 Este 0 -- -- 84
2017-12-02 04:00:00 -2.3 5 Este 13 Este 0 -- -- 74
2017-12-02 03:00:00 -1.7 8 Este 14 Este 0 -- -- 75
2017-12-02 02:00:00 -1.7 12 Este 17 Este 0 -- -- 78
2017-12-02 01:00:00 -1.5 11 Este 16 Este 0 -- -- 81
2017-12-02 00:00:00 -1.3 13 Este 22 Este 0 -- -- 81
2017-12-01 23:00:00 -1.2 13 Este 29 Este 0 -- -- 83
2017-12-01 22:00:00 -0.5 15 Este 35 Este 0 -- -- 84
2017-12-01 21:00:00 -0.5 13 Este 27 Nordeste 0 -- -- 84
2017-12-01 20:00:00 0.6 16 Nordeste 26 Este 0 -- -- 86
2017-12-01 19:00:00 1.4 9 Nordeste 15 Este 0 -- -- 90
2017-12-01 18:00:00 2 12 Nordeste 25 Nordeste 0 -- -- 90
2017-12-01 17:00:00 1.4 10 Este 35 Nordeste 0.4 -- -- 91
2017-12-01 16:00:00 5.1 24 Noroeste 40 Noroeste 0 -- -- 80
2017-12-01 15:00:00 4.6 23 Noroeste 37 Noroeste 0 -- -- 81
2017-12-01 14:00:00 3.4 15 Noroeste 31 Oeste 0 -- -- 87
2017-12-01 13:00:00 3.1 22 Noroeste 35 Oeste 0 -- -- 88
2017-12-01 12:00:00 2.1 15 Oeste 28 Oeste 0 -- -- 95
2017-12-01 11:00:00 0.9 13 Oeste 23 Oeste 0 -- -- 97
2017-12-01 10:00:00 -0.3 12 Oeste 31 Oeste 0 -- -- 96
2017-12-01 09:00:00 -1.6 11 Sudoeste 16 Sudoeste 0 -- -- 95
2017-12-01 08:00:00 -1.9 11 Sur 19 Sur 0 -- -- 95
2017-12-01 07:00:00 -1.2 7 Sudoeste 19 Oeste 0 -- -- 96
2017-12-01 06:00:00 -2.5 6 Sudoeste 13 Sur 0 -- -- 96
2017-12-01 05:00:00 -3.6 10 Sur 12 Sur 0 -- -- 93
2017-12-01 04:00:00 -2.9 8 Sur 17 Sur 0 -- -- 91
2017-12-01 03:00:00 -2.8 14 Sur 18 Sur 0 -- -- 91
2017-12-01 02:00:00 -2.8 10 Sur 15 Sur 0 -- -- 92
2017-12-01 01:00:00 -2.7 10 Sur 13 Sur 0 -- -- 88
2017-12-01 00:00:00 -2.4 10 Sur 15 Sur 0 -- -- 86
2017-11-30 23:00:00 -2.4 12 Sur 15 Sur 0 -- -- 86
2017-11-30 22:00:00 -2.1 10 Sur 14 Sur 0 -- -- 87
2017-11-30 21:00:00 -2.1 8 Sur 12 Sur 0 -- -- 87
2017-11-30 20:00:00 -2.4 7 Sudeste 10 Sur 0 -- -- 89
2017-11-30 19:00:00 -1.9 5 Sudeste 7 Este 0 -- -- 85
2017-11-30 18:00:00 1.9 4 Este 21 Norte 0 -- -- 69
2017-11-30 17:00:00 4 10 Norte 21 Norte 0 -- -- 63
2017-11-30 16:00:00 4.4 14 Nordeste 24 Nordeste 0 -- -- 61
2017-11-30 15:00:00 4.1 15 Nordeste 26 Nordeste 0 -- -- 63
2017-11-30 14:00:00 3.6 15 Nordeste 30 Nordeste 0 -- -- 66
2017-11-30 13:00:00 3.6 18 Nordeste 34 Nordeste 0 -- -- 70
2017-11-30 12:00:00 2.5 24 Nordeste 38 Nordeste 0 -- -- 72
2017-11-30 11:00:00 1.8 24 Este 36 Nordeste 0 -- -- 71
2017-11-30 10:00:00 0.7 19 Este 32 Este 0 -- -- 74
2017-11-30 09:00:00 -0.8 18 Este 30 Este 0 -- -- 82
2017-11-30 08:00:00 -1 20 Este 35 Este 0 -- -- 84
2017-11-30 07:00:00 -1 19 Este 35 Este 0 -- -- 85
2017-11-30 06:00:00 -0.8 19 Este 35 Este 0 -- -- 86
2017-11-30 05:00:00 -0.6 17 Este 31 Este 0 -- -- 82
2017-11-30 04:00:00 -0.8 18 Este 34 Este 0 -- -- 84
2017-11-30 03:00:00 -0.3 17 Este 30 Este 0 -- -- 83
2017-11-30 02:00:00 0.1 14 Este 31 Este 0 -- -- 81
2017-11-30 01:00:00 0.6 13 Este 23 Este 0 -- -- 89
2017-11-30 00:00:00 -0.6 10 Este 14 Este 0 -- -- 91
2017-11-29 23:00:00 0.6 11 Este 19 Este 0 -- -- 85
2017-11-29 22:00:00 1.2 12 Este 21 Este 0 -- -- 84
2017-11-29 21:00:00 1.2 13 Este 27 Este 0 -- -- 84
2017-11-29 20:00:00 1.3 14 Este 19 Este 0 -- -- 85
2017-11-29 19:00:00 1.6 13 Este 22 Nordeste 0 -- -- 84
2017-11-29 18:00:00 3 13 Nordeste 27 Este 0 -- -- 78
2017-11-29 17:00:00 4 15 Nordeste 31 Nordeste 0 -- -- 78
2017-11-29 16:00:00 5 19 Nordeste 29 Nordeste 0 -- -- 73
2017-11-29 15:00:00 5.1 20 Nordeste 33 Nordeste 0 -- -- 77
2017-11-29 14:00:00 5.8 19 Nordeste 31 Nordeste 0 -- -- 76
2017-11-29 13:00:00 4.3 15 Nordeste 27 Nordeste 0 -- -- 95
2017-11-29 12:00:00 2.6 16 Nordeste 24 Nordeste 0 -- -- 98
2017-11-29 11:00:00 1.5 14 Nordeste 20 Este 0 -- -- 99
2017-11-29 10:00:00 0.1 0 Calma 12 Nordeste 0 -- -- 98
2017-11-29 09:00:00 -0.9 0 Calma 18 Nordeste 0 -- -- 97
2017-11-29 08:00:00 2.1 14 Este 21 Este 0 -- -- 85
2017-11-29 07:00:00 1.7 11 Este 18 Este 0 -- -- 95
2017-11-29 06:00:00 1.5 5 Nordeste 9 Sudeste 0 -- -- 97
2017-11-29 05:00:00 2.7 4 Este 8 Sudeste 0 -- -- 97
2017-11-29 04:00:00 2.2 8 Sur 11 Sur 0 -- -- 96
2017-11-29 03:00:00 5.3 2 Nordeste 5 Sudeste 0 -- -- 98
2017-11-29 02:00:00 6.1 2 Sudeste 13 Noroeste 0.2 -- -- 99
2017-11-29 01:00:00 6.5 10 Norte 15 Norte 0.4 -- -- 98
2017-11-29 00:00:00 8 9 Oeste 15 Noroeste 0.4 -- -- 99
2017-11-28 23:00:00 8.2 3 Sudoeste 10 Sudoeste 0 -- -- 99
2017-11-28 22:00:00 8.2 5 Sudoeste 14 Oeste 0 -- -- 98
2017-11-28 21:00:00 8.3 6 Sudoeste 13 Oeste 0 -- -- 98
2017-11-28 20:00:00 8.5 4 Oeste 9 Sudoeste 0 -- -- 97
2017-11-28 19:00:00 8.6 6 Sudoeste 14 Sudoeste 0.6 -- -- 97
2017-11-28 18:00:00 8.8 9 Sudoeste 15 Sudoeste 0.8 -- -- 96
2017-11-28 17:00:00 9.2 10 Sudoeste 24 Sudoeste 0.6 -- -- 95
2017-11-28 16:00:00 9.7 19 Sudoeste 27 Sudoeste 0 -- -- 93
2017-11-28 15:00:00 10.2 17 Sudoeste 26 Sudoeste 0.2 -- -- 95
2017-11-28 14:00:00 9.7 15 Sudoeste 26 Sudoeste 0.2 -- -- 95
2017-11-28 13:00:00 9.7 12 Sudoeste 21 Sudoeste 0.4 -- -- 95
2017-11-28 12:00:00 9.7 13 Sudoeste 20 Sudoeste 0.4 -- -- 96
2017-11-28 11:00:00 9.2 8 Sudoeste 18 Sudoeste 0.2 -- -- 96
2017-11-28 10:00:00 8.8 10 Sudoeste 18 Sudoeste 0.4 -- -- 96
2017-11-28 09:00:00 7.8 6 Oeste 18 Sudoeste 0.6 -- -- 95
2017-11-28 08:00:00 8 12 Sudoeste 20 Sudoeste 0 -- -- 92
2017-11-28 07:00:00 8.8 16 Sudoeste 25 Sudoeste 0 -- -- 85
2017-11-28 06:00:00 9.4 17 Sudoeste 29 Sudoeste 0 -- -- 75
2017-11-28 05:00:00 10 16 Sudoeste 26 Sudoeste 0 -- -- 63
2017-11-28 04:00:00 8.2 6 Oeste 13 Sudoeste 0 -- -- 54
2017-11-28 03:00:00 7.8 5 Oeste 9 Noroeste 0 -- -- 57
2017-11-28 02:00:00 7.8 2 Sur 18 Sudoeste 0 -- -- 58
2017-11-28 01:00:00 7.8 11 Sudoeste 18 Sur 0 -- -- 60
2017-11-28 00:00:00 5.2 12 Sur 18 Sur 0 -- -- 59
2017-11-27 23:00:00 6.3 6 Nordeste 10 Nordeste 0 -- -- 57
2017-11-27 22:00:00 5.4 2 Este 10 Sur 0 -- -- 61
2017-11-27 21:00:00 5.1 10 Sur 14 Sur 0 -- -- 57
2017-11-27 20:00:00 5.1 9 Sur 13 Sur 0 -- -- 57
2017-11-27 19:00:00 5.8 6 Sudeste 8 Sudeste 0 -- -- 57
2017-11-27 18:00:00 5.9 6 Sur 10 Sur 0 -- -- 55
2017-11-27 17:00:00 9.6 6 Sudeste 10 Sudeste 0 -- -- 58
2017-11-27 16:00:00 12 7 Norte 12 Norte 0 -- -- 43
2017-11-27 15:00:00 11.9 5 Norte 15 Noroeste 0 -- -- 45
2017-11-27 14:00:00 11.6 8 Noroeste 17 Oeste 0 -- -- 48
2017-11-27 13:00:00 10.7 4 Noroeste 8 Norte 0 -- -- 47
2017-11-27 12:00:00 9 3 Nordeste 5 Norte 0 -- -- 50
2017-11-27 11:00:00 7.1 0 Calma 10 Sur 0 -- -- 61
2017-11-27 10:00:00 3.3 9 Sur 14 Sur 0 -- -- 69
2017-11-27 09:00:00 1.5 9 Sur 14 Sur 0 -- -- 71
2017-11-27 08:00:00 1.6 10 Sur 16 Sur 0 -- -- 73
2017-11-27 07:00:00 2.3 6 Sur 14 Sur 0 -- -- 69
2017-11-27 06:00:00 3.1 10 Sur 19 Sur 0 -- -- 65
2017-11-27 05:00:00 2.5 9 Sur 12 Sur 0 -- -- 65
2017-11-27 04:00:00 1.4 4 Sur 10 Sudeste 0 -- -- 61
2017-11-27 03:00:00 1 8 Sudeste 14 Sur 0 -- -- 53
2017-11-27 02:00:00 1 14 Sur 17 Sur 0 -- -- 52
2017-11-27 01:00:00 1.7 12 Sudeste 22 Sur 0 -- -- 46
2017-11-27 00:00:00 0.1 14 Sur 16 Sur 0 -- -- 62
2017-11-26 23:00:00 0.1 13 Sur 18 Sur 0 -- -- 64
2017-11-26 22:00:00 0 8 Sudeste 17 Sur 0 -- -- 64
2017-11-26 21:00:00 1.2 11 Sur 18 Sur 0 -- -- 59
2017-11-26 20:00:00 1.3 5 Sudeste 13 Sur 0 -- -- 69
2017-11-26 19:00:00 2.2 7 Sudeste 11 Sudeste 0 -- -- 71
2017-11-26 18:00:00 4.6 9 Sur 12 Sur 0 -- -- 69
2017-11-26 17:00:00 8.9 10 Nordeste 18 Nordeste 0 -- -- 50
2017-11-26 16:00:00 10.7 13 Nordeste 24 Nordeste 0 -- -- 41
2017-11-26 15:00:00 10.8 17 Nordeste 26 Nordeste 0 -- -- 37
2017-11-26 14:00:00 10.3 18 Nordeste 25 Nordeste 0 -- -- 37
2017-11-26 13:00:00 9 19 Nordeste 28 Nordeste 0 -- -- 41
2017-11-26 12:00:00 8.4 21 Nordeste 29 Nordeste 0 -- -- 49
2017-11-26 11:00:00 6.8 16 Nordeste 28 Nordeste 0 -- -- 56
2017-11-26 10:00:00 5.1 18 Nordeste 24 Nordeste 0 -- -- 66
2017-11-26 09:00:00 1.8 11 Este 19 Este 0 -- -- 79
2017-11-26 08:00:00 0.9 13 Este 19 Nordeste 0 -- -- 82
2017-11-26 07:00:00 1.6 16 Este 20 Este 0 -- -- 82
2017-11-26 06:00:00 1.5 11 Este 17 Este 0 -- -- 82
2017-11-26 05:00:00 2.1 15 Este 26 Este 0 -- -- 82
2017-11-26 04:00:00 2.3 17 Este 22 Este 0 -- -- 83
2017-11-26 03:00:00 3.2 17 Este 24 Este 0 -- -- 80
2017-11-26 02:00:00 3.7 19 Este 27 Este 0 -- -- 82
2017-11-26 01:00:00 3.9 18 Este 23 Este 0 -- -- 87
2017-11-26 00:00:00 3.5 11 Este 21 Este 0 -- -- 93
2017-11-25 23:00:00 4.3 15 Este 20 Este 0 -- -- 93
2017-11-25 22:00:00 5.7 18 Este 29 Este 0 -- -- 91
2017-11-25 21:00:00 5.1 11 Este 21 Nordeste 0 -- -- 92
2017-11-25 20:00:00 6.7 15 Este 24 Este 0 -- -- 92
2017-11-25 19:00:00 7.6 14 Este 24 Este 0 -- -- 92
2017-11-25 18:00:00 7.9 15 Nordeste 28 Nordeste 0 -- -- 93
2017-11-25 17:00:00 8.5 15 Nordeste 24 Nordeste 0 -- -- 92
2017-11-25 16:00:00 9.1 14 Nordeste 21 Nordeste 0 -- -- 87
2017-11-25 15:00:00 9.3 10 Nordeste 21 Nordeste 0 -- -- 89
2017-11-25 14:00:00 8.7 12 Nordeste 17 Nordeste 0 -- -- 95
2017-11-25 13:00:00 8.4 9 Nordeste 17 Nordeste 0 -- -- 96
2017-11-25 12:00:00 8.7 9 Nordeste 15 Nordeste 0 -- -- 93
2017-11-25 11:00:00 10.2 8 Norte 14 Norte 0 -- -- 81
2017-11-25 10:00:00 9.6 4 Sudoeste 8 Sudoeste 0 -- -- 79
2017-11-25 09:00:00 8.8 3 Oeste 10 Oeste 0 -- -- 78
2017-11-25 08:00:00 8.5 5 Sudoeste 13 Oeste 0 -- -- 71
2017-11-25 07:00:00 9.9 8 Oeste 19 Sur 0 -- -- 63
2017-11-25 06:00:00 10.2 12 Sudoeste 23 Sudoeste 0 -- -- 61
2017-11-25 05:00:00 10.1 12 Oeste 27 Sudoeste 0 -- -- 65
2017-11-25 04:00:00 10.6 19 Sudoeste 36 Sudoeste 0 -- -- 57
2017-11-25 03:00:00 10.7 24 Sudoeste 38 Sudoeste 0 -- -- 52
2017-11-25 02:00:00 10.8 24 Sudoeste 46 Sudoeste 0 -- -- 55
2017-11-25 01:00:00 11 28 Sudoeste 44 Sudoeste 0 -- -- 57
2017-11-25 00:00:00 11 26 Sudoeste 44 Sudoeste 0 -- -- 66
2017-11-24 23:00:00 11.1 23 Sudoeste 41 Sur 0 -- -- 63
2017-11-24 22:00:00 11.1 22 Sur 40 Sur 0 -- -- 75
2017-11-24 21:00:00 11.2 21 Sudoeste 41 Sur 0 -- -- 79
2017-11-24 20:00:00 11.1 21 Sur 51 Sur 0 -- -- 79
2017-11-24 19:00:00 11.2 22 Sur 46 Sur 0 -- -- 79
2017-11-24 18:00:00 11.2 27 Sur 58 Sur 0.4 -- -- 81
2017-11-24 17:00:00 11 31 Sur 48 Sur 0.4 -- -- 83
2017-11-24 16:00:00 11.6 28 Sur 48 Sur 0 -- -- 76
2017-11-24 15:00:00 11.9 27 Sur 41 Sudoeste 0 -- -- 83
2017-11-24 14:00:00 11.9 18 Sudoeste 35 Sur 0 -- -- 85
2017-11-24 13:00:00 12.8 21 Sur 37 Sur 0 -- -- 81
2017-11-24 12:00:00 12.7 18 Sudoeste 37 Sudoeste 0 -- -- 80
2017-11-24 11:00:00 12.9 21 Sur 31 Sur 0 -- -- 77
2017-11-24 10:00:00 10.6 17 Sudoeste 33 Sudoeste 0.2 -- -- 90
2017-11-24 09:00:00 10.5 18 Sudoeste 32 Sudoeste 0 -- -- 85
2017-11-24 08:00:00 10.1 16 Sur 27 Sudoeste 0 -- -- 89
2017-11-24 07:00:00 10.3 20 Sudoeste 40 Sur 0 -- -- 87
2017-11-24 06:00:00 10.1 24 Sudoeste 44 Sur 0 -- -- 86
2017-11-24 05:00:00 9.6 21 Sudoeste 57 Sur 0 -- -- 87
2017-11-24 04:00:00 9.5 37 Sudoeste 61 Sudoeste 0 -- -- 82
2017-11-24 03:00:00 9.4 32 Sur 68 Sur 0 -- -- 85
2017-11-24 02:00:00 9.2 45 Sur 78 Sur 0 -- -- 87
2017-11-24 01:00:00 8.6 48 Sur 76 Sur 0 -- -- 86
2017-11-24 00:00:00 8.7 52 Sur 90 Sur 0 -- -- 82
2017-11-23 23:00:00 8.8 40 Sur 77 Sur 0.8 -- -- 84
2017-11-23 22:00:00 8.5 32 Sur 71 Sur 2.2 -- -- 82
2017-11-23 21:00:00 13 44 Sur 79 Sur 0 -- -- 45
2017-11-23 20:00:00 13.2 53 Sur 80 Sur 0 -- -- 43
2017-11-23 19:00:00 13 43 Sur 71 Sur 0 -- -- 46
2017-11-23 18:00:00 13 37 Sur 63 Sur 0 -- -- 45
2017-11-23 17:00:00 13 33 Sur 61 Sur 0 -- -- 46
2017-11-23 16:00:00 13.3 39 Sur 67 Sur 0 -- -- 46
2017-11-23 15:00:00 15.3 37 Sur 62 Sur 0 -- -- 39
2017-11-23 14:00:00 14.4 37 Sudoeste 62 Sur 0 -- -- 47
2017-11-23 13:00:00 14.4 37 Sur 72 Sudoeste 0 -- -- 48
2017-11-23 12:00:00 13 41 Sur 64 Sur 0 -- -- 65
2017-11-23 11:00:00 12.4 42 Sur 58 Sur 0.2 -- -- 68
2017-11-23 10:00:00 10.7 24 Sudoeste 67 Sudoeste 0.2 -- -- 80
2017-11-23 09:00:00 11.1 40 Sudoeste 68 Sudoeste 0 -- -- 66
2017-11-23 08:00:00 10.9 35 Sur 56 Sur 0 -- -- 64
2017-11-23 07:00:00 10.8 27 Sudoeste 48 Sur 0 -- -- 62
2017-11-23 06:00:00 11.1 27 Sudoeste 48 Sur 0 -- -- 56
2017-11-23 05:00:00 11.7 30 Sudoeste 55 Sudoeste 0 -- -- 50
2017-11-23 04:00:00 11.2 32 Sudoeste 62 Sur 0 -- -- 51
2017-11-23 03:00:00 11.5 35 Sur 60 Sudoeste 0 -- -- 46
2017-11-23 02:00:00 11.6 36 Sur 68 Sur 0 -- -- 49
2017-11-23 01:00:00 12.7 35 Sur 61 Sur 0 -- -- 43
2017-11-23 00:00:00 12.1 30 Sur 48 Sur 0 -- -- 45
2017-11-22 23:00:00 12 29 Sur 57 Sudoeste 0 -- -- 43
2017-11-22 22:00:00 12.5 31 Sur 63 Sur 0 -- -- 42
2017-11-22 21:00:00 12.3 30 Sur 56 Sur 0 -- -- 44
2017-11-22 20:00:00 12 34 Sur 55 Sur 0 -- -- 43
2017-11-22 19:00:00 12.4 37 Sur 59 Sur 0 -- -- 40
2017-11-22 18:00:00 12.4 33 Sur 57 Sur 0 -- -- 40
2017-11-22 17:00:00 13.4 35 Sur 62 Sur 0 -- -- 36
2017-11-22 16:00:00 13.8 35 Sur 54 Sur 0 -- -- 35
2017-11-22 15:00:00 13.6 32 Sur 49 Sur 0 -- -- 39
2017-11-22 14:00:00 13.2 27 Sur 53 Sur 0 -- -- 40
2017-11-22 13:00:00 14.4 35 Sur 53 Sur 0 -- -- 36
2017-11-22 12:00:00 14.3 35 Sur 55 Sur 0 -- -- 38
2017-11-22 11:00:00 13.5 40 Sur 54 Sur 0 -- -- 38
2017-11-22 10:00:00 12.8 33 Sur 46 Sudeste 0 -- -- 37
2017-11-22 09:00:00 12.2 28 Sur 40 Sur 0 -- -- 37
2017-11-22 08:00:00 11.8 32 Sur 45 Sur 0 -- -- 37
2017-11-22 07:00:00 11.5 27 Sur 44 Sur 0 -- -- 39
2017-11-22 06:00:00 11.6 24 Sur 32 Sur 0 -- -- 39
2017-11-22 05:00:00 11.3 19 Sur 30 Sur 0 -- -- 40
2017-11-22 04:00:00 11.8 18 Sur 32 Sur 0 -- -- 39
2017-11-22 03:00:00 10.6 5 Nordeste 35 Sur 0 -- -- 41
2017-11-22 02:00:00 13 19 Sur 36 Sur 0 -- -- 35
2017-11-22 01:00:00 13 21 Sur 33 Sur 0 -- -- 35
2017-11-22 00:00:00 13.2 22 Sudoeste 33 Sur 0 -- -- 32
2017-11-21 23:00:00 13 19 Sur 31 Sur 0 -- -- 28
2017-11-21 22:00:00 11.1 11 Sur 20 Sur 0 -- -- 41
2017-11-21 21:00:00 10.2 10 Sur 21 Sur 0 -- -- 38
2017-11-21 20:00:00 10.5 9 Sudeste 15 Sur 0 -- -- 36
2017-11-21 19:00:00 9.5 3 Sudoeste 28 Sudeste 0 -- -- 40
2017-11-21 18:00:00 12.8 23 Sudeste 33 Sudeste 0 -- -- 36
2017-11-21 17:00:00 15.8 10 Sudoeste 21 Sudoeste 0 -- -- 33
2017-11-21 16:00:00 17.5 6 Sur 19 Sur 0 -- -- 29
2017-11-21 15:00:00 17.5 7 Sur 23 Sur 0 -- -- 29
2017-11-21 14:00:00 16.8 14 Sudeste 26 Sudoeste 0 -- -- 32
2017-11-21 13:00:00 16.7 12 Sudoeste 22 Sudoeste 0 -- -- 30
2017-11-21 12:00:00 16.2 9 Sur 15 Sur 0 -- -- 34
2017-11-21 11:00:00 14.9 8 Sur 14 Sudoeste 0 -- -- 36
2017-11-21 10:00:00 10.9 6 Sur 15 Sur 0 -- -- 51
2017-11-21 09:00:00 6.1 14 Sur 17 Sur 0 -- -- 59
2017-11-21 08:00:00 5.2 8 Sur 15 Sur 0 -- -- 59
2017-11-21 07:00:00 5 11 Sur 15 Sur 0 -- -- 58
2017-11-21 06:00:00 5 13 Sur 15 Sur 0 -- -- 55
2017-11-21 05:00:00 9.2 12 Sudoeste 21 Sudoeste 0 -- -- 41
2017-11-21 04:00:00 10.1 15 Sudoeste 25 Sur 0 -- -- 36
2017-11-21 03:00:00 9.8 16 Sudoeste 24 Sur 0 -- -- 34
2017-11-21 02:00:00 6.7 3 Sudeste 16 Sudeste 0 -- -- 41
2017-11-21 01:00:00 3.1 13 Sur 21 Sur 0 -- -- 50
2017-11-21 00:00:00 4.9 15 Sur 20 Sur 0 -- -- 44
2017-11-20 23:00:00 5.2 17 Sur 22 Sur 0 -- -- 45
2017-11-20 22:00:00 5.3 20 Sur 23 Sur 0 -- -- 44
2017-11-20 21:00:00 5.7 17 Sur 21 Sur 0 -- -- 42
2017-11-20 20:00:00 6.2 13 Sur 20 Sur 0 -- -- 47
2017-11-20 19:00:00 7.3 17 Sur 20 Sur 0 -- -- 54
2017-11-20 18:00:00 10.5 11 Sur 14 Sur 0 -- -- 54
2017-11-20 17:00:00 17.4 3 Noroeste 9 Sudoeste 0 -- -- 36
2017-11-20 16:00:00 17.4 3 Oeste 13 Noroeste 0 -- -- 33
2017-11-20 15:00:00 16.8 8 Noroeste 14 Noroeste 0 -- -- 34
2017-11-20 14:00:00 16.8 6 Norte 13 Noroeste 0 -- -- 31
2017-11-20 13:00:00 16.4 6 Oeste 12 Noroeste 0 -- -- 30
2017-11-20 12:00:00 15.8 3 Norte 8 Norte 0 -- -- 30
2017-11-20 11:00:00 14.3 0 Calma 7 Sur 0 -- -- 33
2017-11-20 10:00:00 10 8 Sudeste 13 Sur 0 -- -- 43
2017-11-20 09:00:00 5.7 14 Sur 21 Sur 0 -- -- 46
2017-11-20 08:00:00 4.7 17 Sur 20 Sur 0 -- -- 48
2017-11-20 07:00:00 4.8 17 Sur 19 Sur 0 -- -- 48
2017-11-20 06:00:00 5.1 14 Sur 21 Sur 0 -- -- 51
2017-11-20 05:00:00 5.3 19 Sur 21 Sur 0 -- -- 49
2017-11-20 04:00:00 4.8 15 Sur 19 Sur 0 -- -- 51
2017-11-20 03:00:00 5.1 18 Sur 22 Sur 0 -- -- 48
2017-11-20 02:00:00 5.6 21 Sur 23 Sur 0 -- -- 41
2017-11-20 01:00:00 5.4 17 Sur 21 Sur 0 -- -- 39
2017-11-20 00:00:00 4.2 15 Sur 19 Sur 0 -- -- 47
2017-11-19 23:00:00 4.7 14 Sur 17 Sur 0 -- -- 49
2017-11-19 22:00:00 4.6 14 Sur 21 Sur 0 -- -- 58
2017-11-19 21:00:00 5.1 15 Sur 18 Sur 0 -- -- 61
2017-11-19 20:00:00 5.4 11 Sur 16 Sur 0 -- -- 66
2017-11-19 19:00:00 5.9 12 Sur 17 Sur 0 -- -- 69
2017-11-19 18:00:00 8.9 12 Sur 13 Sudeste 0 -- -- 60
2017-11-19 17:00:00 15 3 Norte 9 Noroeste 0 -- -- 42
2017-11-19 16:00:00 15.3 5 Noroeste 12 Noroeste 0 -- -- 41
2017-11-19 15:00:00 15.1 8 Noroeste 14 Oeste 0 -- -- 41
2017-11-19 14:00:00 15.3 9 Noroeste 15 Noroeste 0 -- -- 39
2017-11-19 13:00:00 15.8 8 Noroeste 13 Oeste 0 -- -- 39
2017-11-19 12:00:00 15.5 6 Oeste 10 Oeste 0 -- -- 35
2017-11-19 11:00:00 14.6 4 Oeste 15 Sur 0 -- -- 29
2017-11-19 10:00:00 9.8 14 Sur 25 Sur 0 -- -- 54
2017-11-19 09:00:00 6.4 22 Sur 25 Sur 0 -- -- 57
2017-11-19 08:00:00 6 21 Sur 23 Sur 0 -- -- 61
2017-11-19 07:00:00 5.3 18 Sur 22 Sur 0 -- -- 67
2017-11-19 06:00:00 5.5 10 Sur 18 Sur 0 -- -- 64
2017-11-19 05:00:00 4.7 12 Sur 17 Sur 0 -- -- 64
2017-11-19 04:00:00 5.6 13 Sur 19 Sudeste 0 -- -- 62
2017-11-19 03:00:00 6.5 14 Sur 19 Este 0 -- -- 58
2017-11-19 02:00:00 7.8 13 Este 15 Este 0 -- -- 54
2017-11-19 01:00:00 7.6 14 Este 20 Este 0 -- -- 62
2017-11-19 00:00:00 8.2 15 Este 21 Este 0 -- -- 60
2017-11-18 23:00:00 8.2 16 Este 21 Este 0 -- -- 58
2017-11-18 22:00:00 8.4 16 Este 21 Este 0 -- -- 57
2017-11-18 21:00:00 8.9 16 Este 21 Este 0 -- -- 54
2017-11-18 20:00:00 6.8 10 Sudeste 15 Este 0 -- -- 67
2017-11-18 19:00:00 9.4 8 Este 13 Este 0 -- -- 56
2017-11-18 18:00:00 11.3 9 Este 16 Sudeste 0 -- -- 51
2017-11-18 17:00:00 14 14 Nordeste 21 Nordeste 0 -- -- 44
2017-11-18 16:00:00 14.8 16 Nordeste 25 Norte 0 -- -- 42
2017-11-18 15:00:00 15.7 13 Nordeste 22 Norte 0 -- -- 42
2017-11-18 14:00:00 15.2 11 Nordeste 20 Nordeste 0 -- -- 44
2017-11-18 13:00:00 15.2 9 Nordeste 17 Norte 0 -- -- 44
2017-11-18 12:00:00 15.3 10 Nordeste 18 Nordeste 0 -- -- 45
2017-11-18 11:00:00 14.6 9 Nordeste 14 Este 0 -- -- 44
2017-11-18 10:00:00 13.3 9 Este 13 Este 0 -- -- 48
2017-11-18 09:00:00 10 13 Este 17 Este 0 -- -- 55
2017-11-18 08:00:00 8.4 13 Este 15 Este 0 -- -- 60
2017-11-18 07:00:00 7.6 10 Este 16 Este 0 -- -- 60
2017-11-18 06:00:00 7.1 10 Este 17 Este 0 -- -- 59
2017-11-18 05:00:00 7.9 13 Este 17 Este 0 -- -- 57
2017-11-18 04:00:00 6.4 8 Este 13 Nordeste 0 -- -- 63
2017-11-18 03:00:00 8 11 Este 13 Este 0 -- -- 54
2017-11-18 02:00:00 9 13 Este 14 Este 0 -- -- 51
2017-11-18 01:00:00 5.5 5 Sudeste 13 Este 0 -- -- 65
2017-11-18 00:00:00 7.8 9 Sudeste 16 Este 0 -- -- 57
2017-11-17 23:00:00 7.4 11 Este 14 Este 0 -- -- 57
2017-11-17 22:00:00 8 10 Este 14 Este 0 -- -- 56
2017-11-17 21:00:00 5.8 7 Este 13 Sudeste 0 -- -- 63
2017-11-17 20:00:00 6.9 12 Sur 14 Sur 0 -- -- 60
2017-11-17 19:00:00 7.5 9 Sur 12 Sur 0 -- -- 62
2017-11-17 18:00:00 13.3 5 Este 12 Nordeste 0 -- -- 45
2017-11-17 17:00:00 16.4 10 Nordeste 18 Nordeste 0 -- -- 34
2017-11-17 16:00:00 18.1 10 Norte 16 Norte 0 -- -- 31
2017-11-17 15:00:00 17.9 11 Nordeste 18 Norte 0 -- -- 35
2017-11-17 14:00:00 17.8 12 Norte 20 Norte 0 -- -- 33
2017-11-17 13:00:00 17.8 8 Nordeste 19 Nordeste 0 -- -- 34
2017-11-17 12:00:00 16.6 10 Este 17 Este 0 -- -- 36
2017-11-17 11:00:00 15.2 13 Este 19 Este 0 -- -- 37
2017-11-17 10:00:00 13.1 6 Este 10 Este 0 -- -- 45
2017-11-17 09:00:00 6.8 7 Sudeste 16 Sur 0 -- -- 56
2017-11-17 08:00:00 6 15 Sur 18 Sur 0 -- -- 55
2017-11-17 07:00:00 5.8 14 Sur 22 Sur 0 -- -- 54
2017-11-17 06:00:00 6.6 18 Sur 21 Sur 0 -- -- 50
2017-11-17 05:00:00 6 12 Sur 15 Sur 0 -- -- 55
2017-11-17 04:00:00 6.5 14 Sur 18 Sur 0 -- -- 50
2017-11-17 03:00:00 6.7 13 Sudeste 20 Sur 0 -- -- 52
2017-11-17 02:00:00 5.8 11 Sur 15 Sur 0 -- -- 56
2017-11-17 01:00:00 6.3 9 Sur 14 Sur 0 -- -- 53
2017-11-17 00:00:00 5.8 11 Sur 18 Sur 0 -- -- 55
2017-11-16 23:00:00 5.9 16 Sur 18 Sur 0 -- -- 55
2017-11-16 22:00:00 6.4 12 Sur 17 Sur 0 -- -- 56
2017-11-16 21:00:00 6 15 Sur 18 Sur 0 -- -- 59
2017-11-16 20:00:00 5.7 15 Sur 18 Sur 0 -- -- 62
2017-11-16 19:00:00 5.8 8 Sudeste 12 Sur 0 -- -- 68
2017-11-16 18:00:00 10.4 4 Sudeste 11 Nordeste 0 -- -- 56
2017-11-16 17:00:00 15.6 8 Nordeste 13 Norte 0 -- -- 37
2017-11-16 16:00:00 17 8 Norte 13 Norte 0 -- -- 34
2017-11-16 15:00:00 16.8 7 Norte 13 Nordeste 0 -- -- 32
2017-11-16 14:00:00 15.7 9 Nordeste 16 Nordeste 0 -- -- 31
2017-11-16 13:00:00 15.4 7 Norte 12 Norte 0 -- -- 30
2017-11-16 12:00:00 14.3 7 Nordeste 14 Este 0 -- -- 32
2017-11-16 11:00:00 13.1 8 Nordeste 13 Este 0 -- -- 30
2017-11-16 10:00:00 10.3 3 Este 13 Sur 0 -- -- 39
2017-11-16 09:00:00 4.8 10 Sur 13 Sur 0 -- -- 59
2017-11-16 08:00:00 4.4 11 Sur 14 Sudeste 0 -- -- 58
2017-11-16 07:00:00 3.3 8 Sudeste 10 Sudeste 0 -- -- 61
2017-11-16 06:00:00 3.6 7 Sudeste 10 Sudeste 0 -- -- 58
2017-11-16 05:00:00 3.1 8 Sudeste 11 Sur 0 -- -- 60
2017-11-16 04:00:00 3.3 7 Sudeste 10 Sudeste 0 -- -- 58
2017-11-16 03:00:00 2.8 7 Sudeste 9 Este 0 -- -- 66
2017-11-16 02:00:00 3 6 Sudeste 9 Este 0 -- -- 68
2017-11-16 01:00:00 3.8 6 Sudeste 10 Sur 0 -- -- 65
2017-11-16 00:00:00 5.1 6 Sudeste 15 Sur 0 -- -- 60
2017-11-15 23:00:00 4.7 12 Sur 15 Sur 0 -- -- 65
2017-11-15 22:00:00 4.7 10 Sur 13 Sur 0 -- -- 63
2017-11-15 21:00:00 4.9 10 Sur 12 Sudeste 0 -- -- 63
2017-11-15 20:00:00 5.3 9 Sudeste 16 Sur 0 -- -- 63
2017-11-15 19:00:00 6.4 12 Sur 15 Sur 0 -- -- 63
2017-11-15 18:00:00 8.8 14 Sur 15 Sur 0 -- -- 58
2017-11-15 17:00:00 14.3 4 Noroeste 13 Noroeste 0 -- -- 36
2017-11-15 16:00:00 14.4 7 Oeste 17 Noroeste 0 -- -- 38
2017-11-15 15:00:00 14.2 6 Noroeste 13 Noroeste 0 -- -- 42
2017-11-15 14:00:00 13.2 7 Noroeste 15 Noroeste 0 -- -- 44
2017-11-15 13:00:00 12.8 6 Norte 10 Norte 0 -- -- 44
2017-11-15 12:00:00 11.6 4 Norte 8 Norte 0 -- -- 45
2017-11-15 11:00:00 10.6 4 Norte 6 Norte 0 -- -- 52
2017-11-15 10:00:00 8.6 2 Nordeste 6 Sur 0 -- -- 55
2017-11-15 09:00:00 3.7 3 Sudeste 8 Este 0 -- -- 72
2017-11-15 08:00:00 1.1 5 Este 7 Sudeste 0 -- -- 80
2017-11-15 07:00:00 1.5 4 Sudeste 6 Sudeste 0 -- -- 77
2017-11-15 06:00:00 2.7 4 Sudeste 13 Sur 0 -- -- 71
2017-11-15 05:00:00 1.9 8 Sudeste 12 Sur 0 -- -- 78
2017-11-15 04:00:00 2.3 4 Sur 9 Sur 0 -- -- 74
2017-11-15 03:00:00 3.6 0 Calma 11 Sudoeste 0 -- -- 70
2017-11-15 02:00:00 3.4 3 Sur 9 Sur 0 -- -- 71
2017-11-15 01:00:00 5 5 Oeste 18 Este 0 -- -- 60
2017-11-15 00:00:00 5.9 11 Este 17 Este 0 -- -- 57